Time;durP1;ratioP1;P1;durP2;ratioP2;P2;SDS_P1;SDS_P2;PMS_P1;PMS_P2;Temp;Humidity;BMP_temperature;BMP_pressure;BME280_temperature;BME280_humidity;BME280_pressure;Samples;Min_cycle;Max_cycle;Signal;HPM_P1;HPM_P2
2022/09/22 00:01:00;;;;;;;17.90;8.05;;;12.30;70.00;;;;;;5114277;27;20024;-61
2022/09/22 00:03:51;;;;;;;16.60;8.50;;;12.30;70.00;;;;;;5114589;28;20038;-61
2022/09/22 00:06:19;;;;;;;12.93;6.22;;;12.30;70.00;;;;;;5120490;27;20035;-61
2022/09/22 00:08:50;;;;;;;18.52;6.53;;;12.20;70.00;;;;;;5112057;28;20027;-61
2022/09/22 00:11:16;;;;;;;13.00;5.47;;;12.20;70.00;;;;;;5115122;28;20043;-61
2022/09/22 00:13:49;;;;;;;12.77;6.20;;;12.20;70.00;;;;;;5114876;28;20047;-61
2022/09/22 00:16:17;;;;;;;13.85;6.25;;;12.20;70.00;;;;;;5114775;28;20032;-61
2022/09/22 00:18:42;;;;;;;11.20;5.25;;;12.20;70.00;;;;;;5114464;28;20036;-61
2022/09/22 00:21:11;;;;;;;10.13;5.47;;;12.20;70.00;;;;;;5126341;28;20072;-61
2022/09/22 00:23:38;;;;;;;11.05;5.35;;;12.10;70.00;;;;;;5113546;28;20027;-61
2022/09/22 00:26:12;;;;;;;12.25;5.43;;;12.10;70.00;;;;;;5115518;28;20027;-61
2022/09/22 00:28:40;;;;;;;13.07;5.38;;;12.10;70.10;;;;;;5114043;28;20039;-61
2022/09/22 00:31:09;;;;;;;14.65;5.47;;;12.10;70.10;;;;;;5115600;28;20027;-61
2022/09/22 00:33:36;;;;;;;13.40;4.50;;;12.10;70.20;;;;;;5119897;27;20055;-61
2022/09/22 00:36:03;;;;;;;11.02;5.65;;;12.10;70.20;;;;;;5118101;28;20107;-61
2022/09/22 00:38:30;;;;;;;10.10;4.38;;;12.10;70.30;;;;;;5118335;28;20115;-61
2022/09/22 00:40:56;;;;;;;10.52;4.30;;;12.00;70.20;;;;;;5118922;28;20519;-61
2022/09/22 00:43:27;;;;;;;9.85;3.90;;;12.00;70.20;;;;;;5118546;28;20020;-61
2022/09/22 00:46:02;;;;;;;10.52;4.18;;;12.00;70.20;;;;;;5118257;28;20432;-61
2022/09/22 00:48:31;;;;;;;11.65;3.80;;;12.00;70.20;;;;;;5116109;27;20030;-61
2022/09/22 00:51:00;;;;;;;9.98;3.72;;;12.00;70.20;;;;;;5134995;27;20357;-61
2022/09/22 00:53:27;;;;;;;9.02;3.45;;;12.00;70.30;;;;;;5109425;28;20027;-61
2022/09/22 00:56:01;;;;;;;8.27;2.90;;;12.00;70.30;;;;;;5118336;28;20047;-61
2022/09/22 00:58:33;;;;;;;8.20;3.65;;;11.90;70.30;;;;;;5115845;27;20019;-61
2022/09/22 01:00:59;;;;;;;7.18;3.20;;;12.00;70.30;;;;;;5117835;27;20020;-61
2022/09/22 01:03:28;;;;;;;11.10;3.33;;;11.90;70.30;;;;;;5117485;27;20581;-61
2022/09/22 01:06:00;;;;;;;8.10;2.70;;;11.90;70.30;;;;;;5117082;27;20028;-61
2022/09/22 01:08:28;;;;;;;7.18;2.42;;;11.90;70.40;;;;;;5117016;28;20134;-61
2022/09/22 01:10:54;;;;;;;6.97;2.53;;;11.90;70.40;;;;;;5118860;28;20432;-61
2022/09/22 01:13:42;;;;;;;6.40;2.58;;;11.90;70.40;;;;;;5116561;27;20444;-61
2022/09/22 01:16:39;;;;;;;7.13;2.70;;;11.80;70.30;;;;;;5104431;28;20431;-61
2022/09/22 01:19:44;;;;;;;8.32;2.50;;;11.90;70.40;;;;;;5130726;27;20031;-61
2022/09/22 01:22:35;;;;;;;7.05;2.58;;;11.80;70.40;;;;;;5122490;27;20110;-61
2022/09/22 01:25:00;;;;;;;8.32;2.63;;;11.80;70.40;;;;;;5118210;28;20028;-61
2022/09/22 01:27:31;;;;;;;7.28;2.63;;;11.80;70.50;;;;;;5117482;28;20471;-61
2022/09/22 01:30:19;;;;;;;5.85;2.25;;;11.80;70.50;;;;;;5124895;27;20032;-61
2022/09/22 01:33:03;;;;;;;5.88;2.63;;;11.80;70.50;;;;;;5117798;28;20035;-61
2022/09/22 01:35:37;;;;;;;6.82;2.38;;;11.80;70.60;;;;;;5117686;28;20460;-61
2022/09/22 01:38:10;;;;;;;6.57;2.58;;;11.70;70.60;;;;;;5116977;28;20038;-61
2022/09/22 01:40:51;;;;;;;7.82;2.72;;;11.70;70.60;;;;;;5118069;28;20448;-62
2022/09/22 01:43:34;;;;;;;4.90;2.47;;;11.70;70.60;;;;;;5115361;27;20055;-61
2022/09/22 01:46:05;;;;;;;5.97;2.50;;;11.70;70.60;;;;;;5117359;28;20058;-61
2022/09/22 01:48:35;;;;;;;6.57;2.80;;;11.60;70.70;;;;;;5116652;28;20036;-61
2022/09/22 01:51:08;;;;;;;5.25;2.65;;;11.60;70.70;;;;;;5120686;27;20035;-61
2022/09/22 01:53:42;;;;;;;6.05;2.75;;;11.60;70.80;;;;;;5116665;28;20376;-61
2022/09/22 01:56:11;;;;;;;6.20;2.63;;;11.60;70.90;;;;;;5117029;28;20106;-61
2022/09/22 01:58:46;;;;;;;6.30;2.20;;;11.60;70.90;;;;;;5116203;28;20031;-61
2022/09/22 02:01:17;;;;;;;5.75;2.78;;;11.60;70.90;;;;;;5117537;28;20032;-61
2022/09/22 02:04:01;;;;;;;5.63;2.35;;;11.60;70.90;;;;;;5116372;28;20023;-61
2022/09/22 02:06:46;;;;;;;5.32;2.45;;;11.60;70.90;;;;;;5115545;27;20036;-61
2022/09/22 02:09:16;;;;;;;7.40;3.25;;;11.60;70.90;;;;;;5117197;28;20031;-61
2022/09/22 02:11:41;;;;;;;5.53;2.50;;;11.60;70.90;;;;;;5116055;28;20452;-61
2022/09/22 02:14:07;;;;;;;7.30;2.92;;;11.60;70.90;;;;;;5115843;28;20043;-61
2022/09/22 02:16:34;;;;;;;6.45;2.78;;;11.50;70.90;;;;;;5115745;28;20020;-61
2022/09/22 02:19:15;;;;;;;7.60;2.45;;;11.50;70.90;;;;;;5116698;28;20073;-61
2022/09/22 02:21:44;;;;;;;7.30;2.78;;;11.50;70.90;;;;;;5116984;28;20023;-61
2022/09/22 02:24:39;;;;;;;6.18;2.75;;;11.50;70.90;;;;;;5115988;28;20027;-61
2022/09/22 02:27:09;;;;;;;6.10;2.92;;;11.50;70.90;;;;;;5114143;27;20027;-61
2022/09/22 02:29:39;;;;;;;7.85;3.00;;;11.50;71.00;;;;;;5127100;27;20037;-61
2022/09/22 02:32:08;;;;;;;6.20;2.80;;;11.40;70.90;;;;;;5117078;27;20035;-61
2022/09/22 02:34:34;;;;;;;7.57;3.30;;;11.40;70.90;;;;;;5115817;28;20031;-61
2022/09/22 02:37:24;;;;;;;7.82;3.50;;;11.40;71.00;;;;;;5110937;28;20089;-61
2022/09/22 02:40:08;;;;;;;6.90;3.17;;;11.40;71.00;;;;;;5115490;28;20027;-61
2022/09/22 02:42:54;;;;;;;8.13;4.05;;;11.40;71.00;;;;;;5116120;28;20023;-61
2022/09/22 02:45:35;;;;;;;8.32;4.38;;;11.40;71.00;;;;;;5114649;28;20016;-61
2022/09/22 02:48:09;;;;;;;7.65;4.75;;;11.40;71.10;;;;;;5115730;28;20092;-61
2022/09/22 02:50:35;;;;;;;9.60;5.70;;;11.30;71.10;;;;;;5115528;27;20028;-61
2022/09/22 02:53:03;;;;;;;11.02;5.82;;;11.30;71.10;;;;;;5115146;28;20038;-61
2022/09/22 02:55:29;;;;;;;11.50;5.65;;;11.30;71.10;;;;;;5113957;28;20027;-61
2022/09/22 02:57:55;;;;;;;9.68;4.65;;;11.30;71.10;;;;;;5116486;28;20118;-61
2022/09/22 03:00:21;;;;;;;8.65;4.68;;;11.30;71.20;;;;;;5115904;28;20023;-61
2022/09/22 03:02:47;;;;;;;10.20;4.43;;;11.30;71.20;;;;;;5115614;28;20351;-61
2022/09/22 03:05:13;;;;;;;7.88;4.57;;;11.30;71.20;;;;;;5115273;28;20015;-61
2022/09/22 03:07:39;;;;;;;10.52;4.78;;;11.30;71.20;;;;;;5114745;28;20039;-61
2022/09/22 03:10:05;;;;;;;10.43;4.63;;;11.30;71.30;;;;;;5115090;28;20076;-61
2022/09/22 03:12:31;;;;;;;9.40;4.53;;;11.20;71.20;;;;;;5115832;28;20083;-61
2022/09/22 03:14:56;;;;;;;8.80;4.32;;;11.20;71.20;;;;;;5114836;28;20472;-61
2022/09/22 03:17:22;;;;;;;10.07;5.00;;;11.20;71.20;;;;;;5115429;28;20106;-61
2022/09/22 03:19:48;;;;;;;11.02;5.35;;;11.20;71.20;;;;;;5117099;27;20050;-61
2022/09/22 03:22:13;;;;;;;10.20;5.32;;;11.20;71.20;;;;;;5123781;27;20113;-61
2022/09/22 03:24:39;;;;;;;11.45;5.25;;;11.20;71.20;;;;;;5114196;27;20034;-61
2022/09/22 03:27:05;;;;;;;8.98;4.88;;;11.20;71.20;;;;;;5114698;27;20036;-61
2022/09/22 03:29:30;;;;;;;8.52;4.28;;;11.20;71.30;;;;;;5115533;28;20032;-61
2022/09/22 03:31:56;;;;;;;7.00;3.75;;;11.10;71.20;;;;;;5115221;28;20128;-61
2022/09/22 03:34:22;;;;;;;9.00;4.10;;;11.10;71.20;;;;;;5113882;27;20440;-61
2022/09/22 03:36:47;;;;;;;6.50;3.17;;;11.10;71.30;;;;;;5119141;27;20051;-61
2022/09/22 03:39:13;;;;;;;8.32;3.80;;;11.10;71.30;;;;;;5118057;27;20140;-61
2022/09/22 03:41:39;;;;;;;8.90;3.90;;;11.10;71.30;;;;;;5115250;28;20024;-61
2022/09/22 03:44:05;;;;;;;6.60;3.70;;;11.10;71.30;;;;;;5115017;28;20041;-61
2022/09/22 03:46:31;;;;;;;7.15;3.63;;;11.00;71.30;;;;;;5115221;28;20020;-61
2022/09/22 03:48:57;;;;;;;7.20;3.63;;;11.00;71.30;;;;;;5115624;28;20356;-61
2022/09/22 03:51:22;;;;;;;6.65;3.50;;;11.00;71.40;;;;;;5134953;27;20027;-61
2022/09/22 03:53:48;;;;;;;8.15;3.67;;;11.00;71.30;;;;;;5115761;27;20065;-61
2022/09/22 03:56:14;;;;;;;6.68;3.67;;;11.00;71.40;;;;;;5115010;28;20024;-61
2022/09/22 03:58:41;;;;;;;5.93;3.10;;;11.00;71.40;;;;;;5113711;28;20027;-61
2022/09/22 04:01:08;;;;;;;7.47;3.30;;;11.00;71.40;;;;;;5130907;27;20436;-61
2022/09/22 04:03:35;;;;;;;6.70;3.53;;;11.00;71.40;;;;;;5115541;28;20020;-61
2022/09/22 04:06:01;;;;;;;8.40;3.67;;;11.00;71.40;;;;;;5119652;27;20020;-61
2022/09/22 04:08:26;;;;;;;7.40;3.40;;;11.00;71.40;;;;;;5118239;27;20454;-61
2022/09/22 04:10:52;;;;;;;7.78;3.58;;;10.90;71.40;;;;;;5118070;28;20034;-61
2022/09/22 04:13:18;;;;;;;7.68;3.65;;;10.90;71.40;;;;;;5114700;27;20027;-61
2022/09/22 04:15:45;;;;;;;6.63;3.42;;;10.90;71.40;;;;;;5113774;28;20031;-61
2022/09/22 04:18:14;;;;;;;8.45;3.78;;;10.90;71.40;;;;;;5113831;28;20028;-61
2022/09/22 04:20:42;;;;;;;7.25;3.53;;;10.90;71.40;;;;;;5114179;28;20024;-61
2022/09/22 04:23:09;;;;;;;7.50;3.45;;;10.90;71.40;;;;;;5113987;28;20433;-62
2022/09/22 04:25:34;;;;;;;7.18;3.47;;;10.90;71.50;;;;;;5114368;28;20055;-61
2022/09/22 04:28:01;;;;;;;8.95;4.05;;;10.80;71.40;;;;;;5114092;28;20452;-61
2022/09/22 04:30:26;;;;;;;8.80;3.83;;;10.80;71.50;;;;;;5114678;28;20020;-61
2022/09/22 04:32:52;;;;;;;7.28;3.90;;;10.80;71.50;;;;;;5113725;28;20445;-61
2022/09/22 04:35:18;;;;;;;8.02;3.70;;;10.80;71.50;;;;;;5115663;28;20028;-61
2022/09/22 04:37:43;;;;;;;6.82;3.80;;;10.80;71.50;;;;;;5112970;28;20023;-61
2022/09/22 04:40:10;;;;;;;7.13;3.83;;;10.80;71.50;;;;;;5113338;28;20440;-61
2022/09/22 04:42:37;;;;;;;8.13;3.67;;;10.80;71.50;;;;;;5122261;28;20575;-61
2022/09/22 04:45:05;;;;;;;9.77;4.65;;;10.80;72.20;;;;;;5114567;27;20023;-61
2022/09/22 04:47:32;;;;;;;9.85;4.40;;;10.80;71.60;;;;;;5113888;28;20035;-61
2022/09/22 04:49:58;;;;;;;9.45;4.30;;;10.70;71.50;;;;;;5114573;28;20024;-61
2022/09/22 04:52:24;;;;;;;10.63;4.82;;;10.70;71.60;;;;;;5113636;28;20513;-61
2022/09/22 04:54:50;;;;;;;8.00;4.53;;;10.80;71.60;;;;;;5113564;28;20066;-61
2022/09/22 04:57:16;;;;;;;7.72;4.00;;;10.70;71.60;;;;;;5112125;28;20101;-61
2022/09/22 04:59:41;;;;;;;7.93;4.13;;;10.70;71.60;;;;;;5113842;28;20038;-61
2022/09/22 05:02:08;;;;;;;7.97;3.95;;;10.70;71.70;;;;;;5115025;28;20016;-61
2022/09/22 05:04:33;;;;;;;9.65;4.03;;;10.70;71.70;;;;;;5116870;28;20045;-61
2022/09/22 05:06:59;;;;;;;7.38;4.15;;;10.70;71.60;;;;;;5118351;28;20456;-61
2022/09/22 05:09:24;;;;;;;9.50;4.22;;;10.70;71.60;;;;;;5113797;28;20031;-61
2022/09/22 05:11:50;;;;;;;9.30;4.22;;;10.70;71.70;;;;;;5114866;28;20089;-61
2022/09/22 05:14:16;;;;;;;8.27;4.40;;;10.60;71.60;;;;;;5113840;28;20039;-61
2022/09/22 05:16:43;;;;;;;8.40;4.13;;;10.70;71.70;;;;;;5115511;28;20028;-61
2022/09/22 05:19:09;;;;;;;8.82;5.05;;;10.70;71.80;;;;;;5133767;27;20028;-61
2022/09/22 05:21:35;;;;;;;9.98;5.43;;;10.60;71.70;;;;;;5117763;27;20055;-61
2022/09/22 05:24:02;;;;;;;8.77;5.38;;;10.60;71.80;;;;;;5125660;27;20061;-61
2022/09/22 05:26:29;;;;;;;9.80;5.13;;;10.60;71.80;;;;;;5118153;28;20329;-61
2022/09/22 05:28:56;;;;;;;8.68;5.10;;;10.60;71.90;;;;;;5117106;28;20035;-61
2022/09/22 05:31:22;;;;;;;9.15;4.97;;;10.60;71.90;;;;;;5119454;27;20054;-61
2022/09/22 05:33:48;;;;;;;9.60;4.60;;;10.60;71.90;;;;;;5118880;27;20035;-61
2022/09/22 05:36:15;;;;;;;9.93;5.32;;;10.60;71.90;;;;;;5126435;27;20025;-61
2022/09/22 05:38:41;;;;;;;9.98;5.20;;;10.60;71.90;;;;;;5117107;28;20067;-61
2022/09/22 05:41:06;;;;;;;9.13;4.93;;;10.60;71.80;;;;;;5117649;27;20027;-61
2022/09/22 05:43:32;;;;;;;10.05;5.03;;;10.70;71.90;;;;;;5117358;27;20031;-61
2022/09/22 05:45:58;;;;;;;8.55;4.88;;;10.70;71.90;;;;;;5117024;28;20025;-61
2022/09/22 05:48:23;;;;;;;8.63;5.28;;;10.60;71.80;;;;;;5117238;28;20111;-61
2022/09/22 05:50:49;;;;;;;11.50;5.43;;;10.70;71.90;;;;;;5118105;27;20030;-62
2022/09/22 05:53:15;;;;;;;9.90;4.93;;;10.60;71.80;;;;;;5117422;27;20019;-62
2022/09/22 05:55:41;;;;;;;10.40;5.57;;;10.70;71.90;;;;;;5119919;27;20329;-61
2022/09/22 05:58:12;;;;;;;11.52;5.68;;;10.70;71.90;;;;;;5116399;28;20070;-62
2022/09/22 06:00:39;;;;;;;8.57;5.05;;;10.70;71.90;;;;;;5116417;28;20547;-62
2022/09/22 06:03:05;;;;;;;7.57;4.60;;;10.70;71.90;;;;;;5113475;27;20023;-63
2022/09/22 06:05:31;;;;;;;8.88;5.22;;;10.70;71.90;;;;;;5120707;27;20456;-61
2022/09/22 06:08:02;;;;;;;9.52;4.70;;;10.80;72.60;;;;;;5122654;27;20039;-62
2022/09/22 06:10:33;;;;;;;9.60;5.18;;;10.80;72.00;;;;;;5115838;28;20509;-62
2022/09/22 06:13:07;;;;;;;8.15;4.63;;;10.80;72.00;;;;;;5117287;28;20039;-62
2022/09/22 06:15:35;;;;;;;9.13;5.47;;;10.80;72.00;;;;;;5116662;28;20035;-62
2022/09/22 06:18:04;;;;;;;9.55;5.32;;;10.90;72.10;;;;;;5116969;28;20348;-61
2022/09/22 06:20:30;;;;;;;11.60;5.63;;;10.90;72.10;;;;;;5115912;27;20032;-61
2022/09/22 06:22:56;;;;;;;11.02;6.60;;;10.90;72.20;;;;;;5116180;28;20023;-62
2022/09/22 06:25:22;;;;;;;10.50;6.22;;;10.90;72.20;;;;;;5116386;27;20097;-62
2022/09/22 06:28:03;;;;;;;12.52;6.72;;;10.90;72.30;;;;;;5116021;28;20015;-62
2022/09/22 06:30:30;;;;;;;11.35;6.53;;;11.00;72.40;;;;;;5116230;27;20030;-62
2022/09/22 06:32:55;;;;;;;9.90;5.95;;;11.00;72.30;;;;;;5113271;28;20401;-63
2022/09/22 06:35:21;;;;;;;10.07;6.25;;;11.10;72.40;;;;;;5113235;28;20143;-63
2022/09/22 06:37:55;;;;;;;9.75;5.95;;;11.10;72.50;;;;;;5114922;27;20024;-62
2022/09/22 06:40:22;;;;;;;11.07;7.07;;;11.10;72.50;;;;;;5114547;27;20031;-63
2022/09/22 06:42:48;;;;;;;12.15;7.35;;;11.20;72.60;;;;;;5117075;27;20119;-63
2022/09/22 06:45:15;;;;;;;11.63;7.35;;;11.20;72.70;;;;;;5112148;28;20073;-62
2022/09/22 06:47:41;;;;;;;12.95;8.52;;;11.30;72.80;;;;;;5116159;28;20110;-62
2022/09/22 06:50:08;;;;;;;12.02;7.50;;;11.30;72.80;;;;;;5116247;28;20023;-62
2022/09/22 06:52:35;;;;;;;13.27;8.77;;;11.40;72.80;;;;;;5118487;27;20436;-62
2022/09/22 06:55:01;;;;;;;14.30;8.88;;;11.50;72.80;;;;;;5117529;27;20039;-62
2022/09/22 06:57:31;;;;;;;12.85;8.52;;;11.60;72.80;;;;;;5113531;28;20024;-62
2022/09/22 06:59:59;;;;;;;11.70;8.25;;;11.70;72.60;;;;;;5114396;28;20039;-62
2022/09/22 07:02:27;;;;;;;12.80;8.95;;;11.80;72.40;;;;;;5115575;27;20376;-61
2022/09/22 07:04:57;;;;;;;11.80;8.68;;;11.90;72.20;;;;;;5115351;28;20046;-61
2022/09/22 07:07:28;;;;;;;12.52;8.57;;;12.00;72.00;;;;;;5114483;28;20034;-62
2022/09/22 07:09:54;;;;;;;12.00;8.15;;;12.10;72.00;;;;;;5119218;27;20044;-61
2022/09/22 07:12:21;;;;;;;14.38;8.95;;;12.10;71.90;;;;;;5117785;27;20446;-61
2022/09/22 07:14:48;;;;;;;14.48;8.70;;;12.20;71.90;;;;;;5114210;28;20360;-61
2022/09/22 07:17:20;;;;;;;12.82;8.57;;;12.20;71.90;;;;;;5115123;28;20023;-61
2022/09/22 07:19:46;;;;;;;12.93;8.13;;;12.30;71.90;;;;;;5120929;27;20092;-61
2022/09/22 07:22:14;;;;;;;14.38;8.77;;;12.40;71.90;;;;;;5113473;27;20035;-62
2022/09/22 07:24:43;;;;;;;13.50;8.65;;;12.50;71.90;;;;;;5119286;27;20027;-62
2022/09/22 07:27:10;;;;;;;12.82;8.43;;;12.50;71.90;;;;;;5116102;27;20050;-62
2022/09/22 07:29:36;;;;;;;12.75;9.07;;;12.70;71.90;;;;;;5115550;28;20062;-62
2022/09/22 07:32:02;;;;;;;13.25;9.23;;;12.70;71.80;;;;;;5115628;28;20047;-62
2022/09/22 07:34:28;;;;;;;13.43;9.05;;;12.90;71.70;;;;;;5115144;28;20023;-62
2022/09/22 07:36:54;;;;;;;16.45;10.18;;;13.00;71.60;;;;;;5115541;28;20024;-62
2022/09/22 07:39:20;;;;;;;12.20;8.93;;;13.00;71.40;;;;;;5115255;28;20024;-62
2022/09/22 07:41:46;;;;;;;21.92;10.30;;;13.20;71.30;;;;;;5122856;27;20023;-62
2022/09/22 07:46:58;;;;;;;13.63;8.77;;;13.40;71.00;;;;;;5113416;28;20026;-62
2022/09/22 07:49:24;;;;;;;14.80;9.48;;;13.60;70.80;;;;;;5114870;28;20459;-62
2022/09/22 07:51:53;;;;;;;11.98;9.00;;;13.70;70.40;;;;;;5114669;28;20047;-62
2022/09/22 07:54:20;;;;;;;14.68;8.55;;;13.90;70.20;;;;;;5114415;28;20501;-61
2022/09/22 07:56:48;;;;;;;12.32;9.80;;;14.20;69.80;;;;;;5120689;27;20110;-61
2022/09/22 07:59:15;;;;;;;12.30;9.25;;;14.40;69.30;;;;;;5114852;28;20439;-62
2022/09/22 08:01:46;;;;;;;10.90;8.20;;;14.60;68.80;;;;;;5113674;28;20046;-63
2022/09/22 08:04:15;;;;;;;12.47;8.20;;;14.80;68.30;;;;;;5114766;28;20024;-62
2022/09/22 08:06:45;;;;;;;15.10;9.18;;;15.10;67.90;;;;;;5109641;28;20041;-61
2022/09/22 08:09:12;;;;;;;12.43;7.95;;;15.40;67.30;;;;;;5114994;27;20039;-61
2022/09/22 08:11:38;;;;;;;11.48;8.68;;;15.60;66.80;;;;;;5113987;28;20095;-61
2022/09/22 08:14:07;;;;;;;13.60;7.90;;;15.80;66.20;;;;;;5125692;28;20046;-61
2022/09/22 08:16:34;;;;;;;13.30;7.78;;;16.00;65.70;;;;;;5131499;28;20114;-61
2022/09/22 08:19:10;;;;;;;15.27;7.63;;;16.20;65.30;;;;;;5115023;28;20019;-61
2022/09/22 08:21:37;;;;;;;10.80;7.45;;;16.30;64.90;;;;;;5106400;28;20106;-62
2022/09/22 08:24:05;;;;;;;11.35;7.32;;;16.50;64.50;;;;;;5115040;28;20028;-62
2022/09/22 08:26:32;;;;;;;12.68;8.05;;;16.70;64.10;;;;;;5114009;28;20043;-62
2022/09/22 08:28:58;;;;;;;15.57;8.07;;;16.90;63.70;;;;;;5126226;28;20058;-61
2022/09/22 08:31:25;;;;;;;13.10;7.20;;;17.10;63.50;;;;;;5115234;28;20416;-61
2022/09/22 08:33:52;;;;;;;11.98;6.65;;;17.30;63.20;;;;;;5114773;28;20361;-61
2022/09/22 08:36:19;;;;;;;12.75;7.40;;;17.40;63.30;;;;;;5114708;28;20487;-61
2022/09/22 08:38:47;;;;;;;11.25;6.40;;;17.60;62.10;;;;;;5114369;28;20024;-62
2022/09/22 08:41:38;;;;;;;10.25;6.35;;;17.70;61.60;;;;;;5117023;28;20044;-61
2022/09/22 08:44:10;;;;;;;9.88;6.10;;;17.90;61.30;;;;;;5113935;28;20084;-62
2022/09/22 08:46:44;;;;;;;10.98;6.25;;;18.10;61.10;;;;;;5130956;28;20027;-62
2022/09/22 08:52:49;;;;;;;10.00;5.63;;;18.30;60.40;;;;;;5107317;28;20035;-62
2022/09/22 08:55:20;;;;;;;10.13;5.75;;;18.50;60.00;;;;;;5118649;28;20333;-61
2022/09/22 08:58:06;;;;;;;11.45;5.72;;;18.70;59.70;;;;;;5123022;27;20042;-62
2022/09/22 09:00:55;;;;;;;9.77;6.00;;;18.80;59.30;;;;;;5118942;27;20058;-62
2022/09/22 09:03:35;;;;;;;11.60;5.95;;;18.90;59.00;;;;;;5118354;28;20030;-62
2022/09/22 09:06:14;;;;;;;8.45;5.13;;;19.00;58.80;;;;;;5118319;28;20031;-62
2022/09/22 09:08:52;;;;;;;13.15;6.20;;;19.10;58.60;;;;;;5131373;27;20023;-62
2022/09/22 09:11:56;;;;;;;12.00;4.85;;;19.20;58.50;;;;;;5123832;27;20358;-62
2022/09/22 09:14:41;;;;;;;9.38;5.18;;;19.30;58.30;;;;;;5117237;28;20317;-62
2022/09/22 09:17:17;;;;;;;9.68;4.93;;;19.40;58.40;;;;;;5118114;28;20028;-63
2022/09/22 09:19:50;;;;;;;9.45;5.25;;;19.50;58.30;;;;;;5118477;28;20447;-62
2022/09/22 09:22:24;;;;;;;9.05;5.25;;;19.60;58.30;;;;;;5117506;28;20035;-62
2022/09/22 09:25:04;;;;;;;11.10;4.97;;;19.70;58.10;;;;;;5121711;27;20428;-62
2022/09/22 09:27:37;;;;;;;9.68;4.57;;;19.70;57.70;;;;;;5127741;27;20019;-62
2022/09/22 09:30:17;;;;;;;9.00;4.90;;;19.80;57.60;;;;;;5117906;28;20106;-62
2022/09/22 09:32:48;;;;;;;9.23;4.53;;;19.90;57.50;;;;;;5117496;28;20031;-62
2022/09/22 09:35:41;;;;;;;8.48;4.18;;;19.90;57.20;;;;;;5116729;28;20100;-63
2022/09/22 09:38:16;;;;;;;9.73;4.80;;;20.10;56.70;;;;;;5115481;28;20024;-62
2022/09/22 09:40:51;;;;;;;8.88;5.07;;;20.10;56.70;;;;;;5116575;27;20107;-62
2022/09/22 09:43:19;;;;;;;9.13;4.38;;;20.20;56.40;;;;;;5115871;28;20359;-62
2022/09/22 09:46:00;;;;;;;9.07;4.18;;;20.20;56.20;;;;;;5117906;28;20032;-62
2022/09/22 09:49:04;;;;;;;6.25;3.17;;;20.20;55.70;;;;;;5117972;28;20055;-62
2022/09/22 09:51:34;;;;;;;8.63;3.65;;;20.40;55.70;;;;;;5117517;28;20027;-62
2022/09/22 09:54:04;;;;;;;8.15;3.90;;;20.40;55.40;;;;;;5117319;27;20059;-63
2022/09/22 09:56:31;;;;;;;9.13;4.05;;;20.40;54.90;;;;;;5133978;27;20026;-62
2022/09/22 10:01:56;;;;;;;6.85;3.25;;;20.50;54.50;;;;;;5116399;28;20501;-62
2022/09/22 10:04:36;;;;;;;6.45;3.33;;;20.50;54.60;;;;;;5115972;27;20089;-62
2022/09/22 10:07:23;;;;;;;11.00;3.65;;;20.60;53.90;;;;;;5117040;28;20019;-62
2022/09/22 10:09:51;;;;;;;6.78;2.63;;;20.60;53.50;;;;;;5113747;27;20096;-62
2022/09/22 10:12:28;;;;;;;6.10;2.35;;;20.70;53.80;;;;;;5115293;28;20096;-62
2022/09/22 10:14:57;;;;;;;7.45;2.67;;;20.80;53.10;;;;;;5115243;28;20067;-62
2022/09/22 10:17:26;;;;;;;9.30;3.33;;;20.80;53.10;;;;;;5116094;28;20031;-62
2022/09/22 10:19:51;;;;;;;7.20;3.17;;;20.90;53.00;;;;;;5113074;27;20054;-62
2022/09/22 10:22:24;;;;;;;6.70;2.55;;;21.00;52.90;;;;;;5114942;27;20027;-62
2022/09/22 10:24:56;;;;;;;7.72;2.88;;;21.10;52.90;;;;;;5116478;27;20035;-61
2022/09/22 10:27:23;;;;;;;7.82;3.47;;;21.20;52.80;;;;;;5116535;28;20102;-62
2022/09/22 10:30:12;;;;;;;7.00;3.25;;;21.20;52.70;;;;;;5115824;27;20031;-62
2022/09/22 10:32:39;;;;;;;8.85;3.72;;;21.30;52.60;;;;;;5097239;28;20100;-62
2022/09/22 10:35:34;;;;;;;6.18;3.20;;;21.30;52.80;;;;;;5118802;27;20027;-61
2022/09/22 10:38:27;;;;;;;8.23;3.80;;;21.40;52.70;;;;;;5097043;27;20118;-62
2022/09/22 10:41:06;;;;;;;8.15;3.15;;;21.50;52.60;;;;;;5114721;27;20043;-62
2022/09/22 10:43:53;;;;;;;6.65;3.28;;;21.50;52.10;;;;;;5101369;28;20053;-62
2022/09/22 10:46:39;;;;;;;9.02;3.35;;;21.50;51.60;;;;;;5115386;28;20441;-62
2022/09/22 10:49:20;;;;;;;8.43;3.10;;;21.50;51.50;;;;;;5132671;27;20026;-62
2022/09/22 10:51:55;;;;;;;7.22;3.28;;;21.50;51.10;;;;;;5121691;27;20039;-62
2022/09/22 10:54:34;;;;;;;7.13;3.60;;;21.50;51.20;;;;;;5131914;27;20032;-62
2022/09/22 10:57:08;;;;;;;5.97;3.30;;;21.50;51.20;;;;;;5116705;27;20345;-62
2022/09/22 10:59:43;;;;;;;7.53;3.33;;;21.60;51.30;;;;;;5117319;27;20032;-62
2022/09/22 11:02:46;;;;;;;6.28;3.05;;;21.60;51.00;;;;;;5116389;28;20072;-62
2022/09/22 11:12:15;;;;;;;7.03;3.00;;;21.70;50.80;;;;;;5111608;28;20328;-62
2022/09/22 11:14:24;;;;;;;9.65;3.70;;;21.70;50.50;;;;;;5115906;28;20059;-63
2022/09/22 11:17:02;;;;;;;8.50;2.70;;;21.60;50.40;;;;;;5114765;27;20055;-62
2022/09/22 11:19:41;;;;;;;6.78;3.05;;;21.50;50.60;;;;;;5118197;27;20440;-63
2022/09/22 11:22:25;;;;;;;7.75;2.72;;;21.60;50.50;;;;;;5119180;27;20020;-62
2022/09/22 11:25:25;;;;;;;8.52;3.00;;;21.60;50.00;;;;;;5117133;27;20038;-62
2022/09/22 11:28:22;;;;;;;7.60;3.20;;;21.50;50.00;;;;;;5107703;27;20511;-62
2022/09/22 11:30:53;;;;;;;6.55;2.72;;;21.10;49.30;;;;;;5115617;28;20061;-62
2022/09/22 11:33:39;;;;;;;7.07;2.47;;;20.90;49.80;;;;;;5115235;28;20076;-62
2022/09/22 11:36:08;;;;;;;4.40;1.85;;;20.90;49.60;;;;;;5116484;27;20035;-62
2022/09/22 11:39:06;;;;;;;6.45;2.28;;;21.10;49.50;;;;;;5115288;27;20428;-62
2022/09/22 11:42:23;;;;;;;6.38;2.13;;;21.20;49.10;;;;;;5115503;28;20100;-64
2022/09/22 11:45:01;;;;;;;5.00;2.03;;;21.30;48.80;;;;;;5073358;28;20146;-63
2022/09/22 11:47:37;;;;;;;5.78;2.28;;;21.30;48.10;;;;;;5075184;28;20033;-63
2022/09/22 11:50:17;;;;;;;4.47;1.98;;;21.10;48.20;;;;;;5071708;28;20525;-63
2022/09/22 11:52:59;;;;;;;6.05;2.15;;;20.90;48.40;;;;;;5073050;28;20381;-62
2022/09/22 11:55:43;;;;;;;6.03;2.17;;;20.80;48.70;;;;;;5072336;28;20068;-62
2022/09/22 11:58:19;;;;;;;7.85;2.30;;;20.60;49.20;;;;;;5072079;28;20044;-63
2022/09/22 12:01:05;;;;;;;5.47;1.80;;;20.40;49.20;;;;;;5072274;28;20462;-63
2022/09/22 12:04:19;;;;;;;4.63;1.90;;;20.50;48.80;;;;;;5072753;28;20128;-62
2022/09/22 12:06:49;;;;;;;4.25;1.70;;;20.60;48.40;;;;;;5049987;28;20152;-63
2022/09/22 12:09:36;;;;;;;4.30;1.83;;;20.70;48.00;;;;;;5055953;28;20106;-63
2022/09/22 12:12:03;;;;;;;5.15;1.98;;;20.80;47.80;;;;;;5072921;28;20039;-63
2022/09/22 12:14:29;;;;;;;4.13;1.60;;;20.90;47.70;;;;;;5072665;28;20045;-63
2022/09/22 12:17:04;;;;;;;4.43;1.70;;;20.90;47.60;;;;;;5071902;28;20078;-62
2022/09/22 12:19:42;;;;;;;4.43;1.40;;;20.80;47.50;;;;;;5087344;28;20419;-63
2022/09/22 12:22:35;;;;;;;3.92;1.42;;;20.80;47.10;;;;;;5120019;28;20037;-62
2022/09/22 12:25:00;;;;;;;3.47;1.52;;;20.90;46.90;;;;;;5115543;28;20428;-63
2022/09/22 12:27:28;;;;;;;5.25;1.67;;;20.80;47.10;;;;;;5116055;27;20072;-62
2022/09/22 12:30:06;;;;;;;4.70;1.88;;;20.80;47.00;;;;;;5118007;28;20043;-63
2022/09/22 12:32:38;;;;;;;5.60;1.58;;;20.80;47.20;;;;;;5118626;28;20432;-63
2022/09/22 12:35:05;;;;;;;4.80;1.63;;;20.80;46.50;;;;;;5118749;28;20040;-63
2022/09/22 12:37:35;;;;;;;4.68;1.90;;;20.80;46.70;;;;;;5120111;27;20352;-62
2022/09/22 12:40:29;;;;;;;5.30;1.77;;;20.60;46.90;;;;;;5118743;28;20027;-62
2022/09/22 12:42:55;;;;;;;3.40;1.63;;;20.50;46.80;;;;;;5123780;27;20031;-63
2022/09/22 12:45:30;;;;;;;4.47;1.60;;;20.30;47.10;;;;;;5117621;27;20316;-62
2022/09/22 12:47:59;;;;;;;4.80;1.90;;;20.30;47.10;;;;;;5116938;27;20032;-62
2022/09/22 12:50:38;;;;;;;5.82;1.90;;;20.30;46.80;;;;;;5114069;27;20106;-62
2022/09/22 12:53:22;;;;;;;4.50;1.90;;;20.30;46.80;;;;;;5117360;27;20374;-62
2022/09/22 12:55:52;;;;;;;4.35;1.70;;;20.20;46.90;;;;;;5118279;28;20027;-62
2022/09/22 12:58:21;;;;;;;4.00;1.88;;;20.20;47.10;;;;;;5115146;27;20092;-62
2022/09/22 13:00:49;;;;;;;4.57;1.77;;;20.10;47.00;;;;;;5108328;27;20122;-62
2022/09/22 13:03:23;;;;;;;3.95;1.90;;;20.10;47.00;;;;;;5113971;27;20163;-62
2022/09/22 13:06:21;;;;;;;4.60;2.05;;;20.00;46.80;;;;;;5115269;28;20450;-63
2022/09/22 13:08:47;;;;;;;6.18;2.17;;;19.90;47.00;;;;;;5073545;28;20131;-62
2022/09/22 13:11:13;;;;;;;6.97;2.40;;;19.80;47.00;;;;;;5071616;28;20147;-63
2022/09/22 13:13:46;;;;;;;5.57;2.33;;;19.70;47.00;;;;;;5073447;28;20134;-63
2022/09/22 13:16:14;;;;;;;6.00;2.08;;;19.70;47.10;;;;;;5074169;28;20045;-63
2022/09/22 13:18:45;;;;;;;5.40;2.20;;;19.70;47.20;;;;;;5073636;28;20036;-62
2022/09/22 13:21:11;;;;;;;5.72;2.10;;;19.70;47.40;;;;;;5074079;28;20516;-62
2022/09/22 13:23:56;;;;;;;4.95;2.05;;;19.60;47.40;;;;;;5074650;28;20115;-63